createdAt,value
2023-03-01T00:01:37.947Z,0.35
2023-03-01T00:04:04.449Z,0.33
2023-03-01T00:06:31.239Z,0.11
2023-03-01T00:08:57.955Z,-0.06
2023-03-01T00:11:28.743Z,0.06
2023-03-01T00:13:57.705Z,0.25
2023-03-01T00:16:29.141Z,0.02
2023-03-01T00:18:56.677Z,-0.18
2023-03-01T00:21:25.008Z,0.02
2023-03-01T00:23:52.164Z,0.26
2023-03-01T00:26:20.649Z,0.32
2023-03-01T00:28:47.585Z,0.50
2023-03-01T00:31:15.771Z,0.58
2023-03-01T00:33:42.501Z,0.48
2023-03-01T00:36:10.867Z,0.57
2023-03-01T00:38:39.835Z,0.81
2023-03-01T00:41:10.650Z,0.86
2023-03-01T00:43:41.158Z,0.89
2023-03-01T00:46:12.642Z,0.88
2023-03-01T00:48:40.715Z,1.16
2023-03-01T00:51:07.277Z,0.93
2023-03-01T00:53:35.361Z,0.91
2023-03-01T00:56:02.168Z,0.98
2023-03-01T00:58:28.733Z,1.21
2023-03-01T01:00:55.305Z,1.23
2023-03-01T01:03:22.021Z,1.19
2023-03-01T01:05:49.972Z,1.20
2023-03-01T01:08:16.404Z,1.46
2023-03-01T01:10:45.527Z,1.33
2023-03-01T01:13:12.009Z,1.21
2023-03-01T01:15:38.666Z,1.32
2023-03-01T01:18:05.862Z,1.45
2023-03-01T01:20:32.410Z,1.26
2023-03-01T01:22:59.636Z,1.24
2023-03-01T01:25:26.540Z,1.30
2023-03-01T01:27:53.096Z,1.33
2023-03-01T01:30:19.839Z,1.08
2023-03-01T01:32:46.333Z,1.10
2023-03-01T01:35:12.884Z,1.28
2023-03-01T01:37:39.648Z,1.20
2023-03-01T01:40:06.456Z,1.20
2023-03-01T01:42:33.033Z,1.21
2023-03-01T01:45:19.508Z,1.46
2023-03-01T01:47:49.492Z,1.38
2023-03-01T01:50:19.064Z,1.33
2023-03-01T01:52:47.426Z,1.45
2023-03-01T01:55:19.941Z,1.52
2023-03-01T01:57:48.250Z,1.42
2023-03-01T02:00:22.562Z,1.48
2023-03-01T02:02:52.941Z,1.72
2023-03-01T02:05:40.118Z,1.46
2023-03-01T02:08:07.242Z,1.39
2023-03-01T02:10:36.189Z,1.54
2023-03-01T02:13:05.146Z,1.44
2023-03-01T02:15:36.209Z,1.27
2023-03-01T02:18:04.675Z,1.23
2023-03-01T02:20:49.528Z,1.45
2023-03-01T02:23:16.423Z,1.36
2023-03-01T02:25:52.686Z,1.18
2023-03-01T02:28:31.830Z,1.35
2023-03-01T02:31:17.012Z,1.49
2023-03-01T02:33:45.534Z,1.35
2023-03-01T02:36:15.529Z,1.38
2023-03-01T02:38:44.348Z,1.54
2023-03-01T02:41:14.304Z,1.59
2023-03-01T02:43:42.355Z,1.53
2023-03-01T02:46:14.010Z,1.47
2023-03-01T02:48:42.011Z,1.63
2023-03-01T02:51:25.109Z,1.59
2023-03-01T02:54:04.344Z,1.45
2023-03-01T02:56:31.180Z,1.42
2023-03-01T02:59:01.632Z,1.60
2023-03-01T03:01:38.225Z,1.50
2023-03-01T03:04:08.848Z,1.39
2023-03-01T03:06:36.965Z,1.46
2023-03-01T03:09:05.508Z,1.61
2023-03-01T03:11:34.446Z,1.46
2023-03-01T03:14:02.043Z,1.30
2023-03-01T03:16:31.061Z,1.39
2023-03-01T03:19:07.264Z,1.48
2023-03-01T03:21:34.268Z,1.26
2023-03-01T03:24:03.326Z,1.16
2023-03-01T03:26:32.415Z,1.35
2023-03-01T03:28:59.204Z,1.46
2023-03-01T03:31:25.840Z,1.35
2023-03-01T03:33:52.499Z,1.28
2023-03-01T03:36:19.830Z,1.43
2023-03-01T03:38:46.779Z,1.54
2023-03-01T03:41:13.702Z,1.42
2023-03-01T03:43:41.363Z,1.31
2023-03-01T03:46:08.137Z,1.39
2023-03-01T03:48:36.161Z,1.55
2023-03-01T03:51:02.851Z,1.37
2023-03-01T03:53:31.304Z,1.40
2023-03-01T03:55:58.032Z,1.52
2023-03-01T03:58:25.020Z,1.63
2023-03-01T04:00:53.460Z,1.47
2023-03-01T04:03:20.932Z,1.41
2023-03-01T04:05:48.339Z,1.53
2023-03-01T04:08:14.907Z,1.67
2023-03-01T04:10:42.796Z,1.59
2023-03-01T04:13:11.567Z,1.45
2023-03-01T04:15:39.655Z,1.46
2023-03-01T04:18:06.748Z,1.61
2023-03-01T04:20:35.725Z,1.42
2023-03-01T04:23:15.518Z,1.28
2023-03-01T04:25:56.860Z,1.39
2023-03-01T04:28:25.611Z,1.54
2023-03-01T04:30:53.678Z,1.37
2023-03-01T04:33:20.797Z,1.30
2023-03-01T04:35:50.363Z,1.39
2023-03-01T04:38:17.940Z,1.42
2023-03-01T04:40:44.419Z,1.29
2023-03-01T04:43:11.851Z,1.08
2023-03-01T04:45:38.327Z,1.23
2023-03-01T04:48:05.065Z,1.27
2023-03-01T04:50:31.570Z,1.15
2023-03-01T04:53:01.056Z,1.07
2023-03-01T04:55:27.813Z,1.16
2023-03-01T04:57:54.937Z,1.35
2023-03-01T05:00:23.925Z,1.23
2023-03-01T05:02:54.286Z,1.26
2023-03-01T05:05:26.762Z,1.30
2023-03-01T05:07:54.252Z,1.53
2023-03-01T05:10:21.297Z,1.40
2023-03-01T05:12:49.021Z,1.33
2023-03-01T05:15:15.823Z,1.36
2023-03-01T05:17:43.615Z,1.59
2023-03-01T05:20:12.545Z,1.46
2023-03-01T05:22:41.202Z,1.49
2023-03-01T05:25:09.635Z,1.51
2023-03-01T05:27:36.308Z,1.72
2023-03-01T05:30:14.481Z,1.57
2023-03-01T05:32:45.733Z,1.51
2023-03-01T05:35:14.264Z,1.45
2023-03-01T05:37:44.473Z,1.61
2023-03-01T05:40:18.354Z,1.59
2023-03-01T05:42:55.365Z,1.40
2023-03-01T05:45:22.822Z,1.29
2023-03-01T05:47:50.471Z,1.50
2023-03-01T05:50:22.024Z,1.30
2023-03-01T05:52:49.570Z,1.24
2023-03-01T05:55:20.815Z,1.13
2023-03-01T05:57:47.314Z,1.33
2023-03-01T06:00:15.095Z,1.15
2023-03-01T06:02:41.593Z,1.20
2023-03-01T06:05:09.388Z,1.10
2023-03-01T06:07:36.274Z,1.31
2023-03-01T06:10:03.469Z,1.25
2023-03-01T06:12:33.924Z,1.14
2023-03-01T06:15:00.793Z,1.16
2023-03-01T06:17:27.533Z,1.38
2023-03-01T06:19:54.054Z,1.36
2023-03-01T06:22:21.878Z,1.29
2023-03-01T06:24:49.159Z,1.24
2023-03-01T06:27:15.614Z,1.48
2023-03-01T06:29:42.774Z,1.41
2023-03-01T06:32:09.325Z,1.38
2023-03-01T06:34:35.892Z,1.45
2023-03-01T06:37:06.158Z,1.64
2023-03-01T06:39:33.276Z,1.58
2023-03-01T06:42:00.130Z,1.43
2023-03-01T06:44:26.713Z,1.42
2023-03-01T06:46:54.407Z,1.60
2023-03-01T06:49:22.129Z,1.39
2023-03-01T06:51:48.581Z,1.35
2023-03-01T06:54:15.157Z,1.29
2023-03-01T06:56:41.635Z,1.55
2023-03-01T06:59:08.221Z,1.52
2023-03-01T07:01:34.850Z,1.47
2023-03-01T07:04:01.543Z,1.51
2023-03-01T07:06:28.124Z,1.74
2023-03-01T07:08:54.678Z,1.62
2023-03-01T07:11:22.438Z,1.61
2023-03-01T07:13:48.986Z,1.65
2023-03-01T07:16:16.893Z,1.79
2023-03-01T07:18:43.725Z,1.90
2023-03-01T07:21:13.429Z,1.85
2023-03-01T07:23:41.409Z,1.83
2023-03-01T07:26:07.923Z,2.11
2023-03-01T07:28:38.269Z,2.11
2023-03-01T07:31:06.043Z,2.11
2023-03-01T07:33:32.857Z,2.13
2023-03-01T07:36:02.420Z,2.41
2023-03-01T07:38:29.269Z,2.41
2023-03-01T07:40:59.095Z,2.38
2023-03-01T07:43:25.925Z,2.49
2023-03-01T07:45:52.826Z,2.65
2023-03-01T07:48:19.327Z,2.64
2023-03-01T07:50:45.764Z,2.64
2023-03-01T07:53:13.609Z,2.79
2023-03-01T07:55:41.501Z,2.72
2023-03-01T07:58:09.237Z,2.67
2023-03-01T08:00:35.745Z,2.93
2023-03-01T08:03:02.643Z,2.98
2023-03-01T08:05:29.417Z,2.98
2023-03-01T08:07:56.123Z,3.11
2023-03-01T08:10:22.670Z,3.31
2023-03-01T08:12:49.123Z,3.24
2023-03-01T08:15:15.694Z,3.25
2023-03-01T08:17:42.170Z,3.44
2023-03-01T08:20:09.308Z,3.44
2023-03-01T08:22:38.589Z,3.46
2023-03-01T08:25:06.794Z,3.69
2023-03-01T08:27:33.302Z,3.66
2023-03-01T08:29:59.785Z,3.59
2023-03-01T08:32:26.373Z,3.75
2023-03-01T08:34:52.868Z,3.88
2023-03-01T08:37:19.417Z,3.83
2023-03-01T08:39:46.125Z,4.01
2023-03-01T08:42:12.657Z,4.07
2023-03-01T08:44:39.181Z,3.95
2023-03-01T08:47:06.006Z,4.14
2023-03-01T08:49:33.685Z,4.22
2023-03-01T08:52:01.569Z,4.11
2023-03-01T08:54:28.082Z,4.29
2023-03-01T08:56:54.588Z,4.32
2023-03-01T08:59:21.080Z,4.38
2023-03-01T09:01:47.684Z,4.66
2023-03-01T09:04:16.969Z,4.58
2023-03-01T09:06:43.448Z,4.42
2023-03-01T09:09:17.272Z,4.61
2023-03-01T09:11:44.758Z,4.71
2023-03-01T09:14:12.585Z,4.69
2023-03-01T09:16:39.768Z,4.76
2023-03-01T09:19:07.963Z,4.95
2023-03-01T09:21:40.515Z,4.96
2023-03-01T09:24:14.104Z,4.95
2023-03-01T09:26:41.281Z,5.07
2023-03-01T09:29:07.805Z,5.03
2023-03-01T09:31:35.878Z,5.05
2023-03-01T09:34:03.629Z,5.20
2023-03-01T09:36:30.596Z,5.18
2023-03-01T09:38:59.025Z,5.36
2023-03-01T09:41:43.662Z,5.34
2023-03-01T09:44:10.192Z,5.40
2023-03-01T09:46:41.402Z,5.44
2023-03-01T09:49:12.727Z,5.27
2023-03-01T09:51:39.247Z,5.33
2023-03-01T09:54:06.803Z,5.38
2023-03-01T09:56:48.529Z,5.29
2023-03-01T09:59:14.963Z,5.42
2023-03-01T10:01:44.437Z,5.34
2023-03-01T10:04:29.655Z,5.33
2023-03-01T10:07:03.496Z,5.28
2023-03-01T10:09:32.315Z,5.42
2023-03-01T10:11:59.176Z,5.45
2023-03-01T10:14:34.360Z,5.44
2023-03-01T10:17:03.802Z,5.59
2023-03-01T10:19:43.773Z,5.54
2023-03-01T10:22:20.148Z,5.39
2023-03-01T10:24:48.395Z,5.60
2023-03-01T10:27:31.606Z,5.64
2023-03-01T10:30:14.728Z,5.56
2023-03-01T10:32:41.275Z,5.62
2023-03-01T10:35:21.433Z,5.80
2023-03-01T10:38:00.218Z,5.74
2023-03-01T10:40:26.812Z,5.88
2023-03-01T10:42:53.583Z,5.93
2023-03-01T10:45:35.720Z,5.88
2023-03-01T10:48:11.370Z,6.03
2023-03-01T10:50:42.190Z,5.98
2023-03-01T10:53:20.870Z,6.18
2023-03-01T10:55:48.675Z,6.16
2023-03-01T10:58:23.149Z,6.13
2023-03-01T11:00:53.606Z,6.22
2023-03-01T11:03:30.616Z,6.35
2023-03-01T11:05:59.051Z,6.27
2023-03-01T11:08:35.182Z,6.30
2023-03-01T11:11:05.754Z,6.42
2023-03-01T11:13:32.393Z,6.48
2023-03-01T11:16:03.443Z,6.40
2023-03-01T11:18:45.952Z,6.56
2023-03-01T11:21:14.052Z,6.53
2023-03-01T11:23:44.253Z,6.49
2023-03-01T11:26:12.897Z,6.71
2023-03-01T11:28:41.510Z,6.65
2023-03-01T11:31:16.548Z,6.74
2023-03-01T11:33:50.617Z,6.78
2023-03-01T11:36:35.668Z,6.68
2023-03-01T11:39:15.298Z,6.61
2023-03-01T11:41:42.812Z,6.84
2023-03-01T11:44:09.995Z,6.81
2023-03-01T11:46:59.299Z,6.82
2023-03-01T11:49:53.812Z,6.90
2023-03-01T11:52:39.074Z,6.85
2023-03-01T11:55:06.646Z,7.08
2023-03-01T11:57:43.046Z,7.04
2023-03-01T12:00:36.805Z,6.97
2023-03-01T12:03:21.898Z,7.13
2023-03-01T12:05:51.589Z,6.99
2023-03-01T12:08:36.768Z,7.01
2023-03-01T12:11:18.631Z,7.13
2023-03-01T12:13:52.348Z,7.08
2023-03-01T12:16:28.734Z,7.11
2023-03-01T12:18:58.365Z,7.10
2023-03-01T12:21:25.189Z,6.99
2023-03-01T12:24:09.819Z,7.07
2023-03-01T12:26:42.613Z,7.18
2023-03-01T12:29:36.465Z,7.08
2023-03-01T12:32:21.750Z,7.13
2023-03-01T12:35:01.594Z,7.19
2023-03-01T12:37:28.022Z,7.09
2023-03-01T12:40:00.610Z,7.21
2023-03-01T12:42:29.967Z,7.16
2023-03-01T12:45:08.983Z,7.09
2023-03-01T12:47:36.830Z,7.18
2023-03-01T12:50:06.579Z,7.08
2023-03-01T12:52:45.105Z,7.15
2023-03-01T12:55:23.628Z,7.16
2023-03-01T12:57:58.026Z,7.11
2023-03-01T13:00:44.390Z,7.22
2023-03-01T13:03:10.840Z,7.28
2023-03-01T13:05:52.442Z,7.39
2023-03-01T13:08:29.417Z,7.54
2023-03-01T13:11:04.503Z,7.42
2023-03-01T13:13:31.235Z,7.65
2023-03-01T13:15:58.051Z,7.61
2023-03-01T13:18:26.248Z,7.68
2023-03-01T13:21:00.180Z,7.75
2023-03-01T13:23:28.858Z,7.63
2023-03-01T13:26:02.094Z,7.64
2023-03-01T13:28:37.741Z,7.80
2023-03-01T13:31:05.295Z,7.63
2023-03-01T13:33:31.732Z,7.70
2023-03-01T13:35:59.735Z,7.66
2023-03-01T13:38:45.343Z,7.50
2023-03-01T13:41:12.087Z,7.63
2023-03-01T13:43:45.728Z,7.39
2023-03-01T13:46:22.834Z,7.41
2023-03-01T13:48:56.491Z,7.34
2023-03-01T13:51:27.949Z,7.29
2023-03-01T13:53:57.338Z,7.44
2023-03-01T13:56:23.852Z,7.30
2023-03-01T13:58:52.872Z,7.30
2023-03-01T14:01:28.812Z,7.44
2023-03-01T14:03:56.588Z,7.24
2023-03-01T14:06:26.181Z,7.03
2023-03-01T14:09:03.193Z,7.27
2023-03-01T14:11:38.734Z,7.37
2023-03-01T14:14:24.144Z,7.35
2023-03-01T14:17:10.856Z,7.41
2023-03-01T14:19:38.752Z,7.43
2023-03-01T14:22:20.597Z,7.36
2023-03-01T14:24:57.764Z,7.52
2023-03-01T14:27:29.158Z,7.47
2023-03-01T14:30:00.304Z,7.53
2023-03-01T14:32:28.290Z,7.59
2023-03-01T14:34:54.984Z,7.53
2023-03-01T14:37:32.354Z,7.72
2023-03-01T14:40:00.091Z,7.55
2023-03-01T14:42:29.216Z,7.48
2023-03-01T14:44:57.773Z,7.68
2023-03-01T14:47:32.737Z,7.63
2023-03-01T14:50:08.837Z,7.51
2023-03-01T14:52:37.665Z,7.74
2023-03-01T14:55:16.029Z,7.70
2023-03-01T14:57:44.277Z,7.54
2023-03-01T15:00:18.397Z,7.71
2023-03-01T15:02:45.057Z,7.69
2023-03-01T15:05:11.594Z,7.69
2023-03-01T15:07:41.120Z,7.91
2023-03-01T15:10:14.045Z,7.75
2023-03-01T15:12:42.692Z,7.88
2023-03-01T15:15:24.275Z,7.96
2023-03-01T15:17:56.274Z,7.76
2023-03-01T15:20:26.825Z,7.78
2023-03-01T15:22:56.121Z,7.68
2023-03-01T15:25:24.151Z,7.51
2023-03-01T15:27:51.998Z,7.64
2023-03-01T15:30:22.782Z,7.64
2023-03-01T15:32:50.907Z,7.49
2023-03-01T15:35:36.155Z,7.55
2023-03-01T15:38:04.031Z,7.47
2023-03-01T15:40:34.072Z,7.33
2023-03-01T15:43:06.551Z,7.33
2023-03-01T15:45:39.739Z,7.48
2023-03-01T15:48:15.134Z,7.22
2023-03-01T15:50:44.322Z,7.43
2023-03-01T15:53:15.744Z,7.28
2023-03-01T15:55:42.640Z,7.20
2023-03-01T15:58:19.724Z,7.24
2023-03-01T16:00:59.870Z,7.38
2023-03-01T16:03:27.581Z,7.11
2023-03-01T16:05:54.665Z,7.03
2023-03-01T16:08:22.646Z,7.27
2023-03-01T16:10:52.246Z,7.08
2023-03-01T16:13:18.960Z,6.93
2023-03-01T16:15:45.474Z,7.00
2023-03-01T16:18:12.809Z,7.01
2023-03-01T16:20:40.299Z,6.81
2023-03-01T16:23:08.653Z,6.68
2023-03-01T16:25:36.504Z,6.79
2023-03-01T16:28:06.135Z,6.69
2023-03-01T16:30:32.691Z,6.61
2023-03-01T16:32:59.464Z,6.71
2023-03-01T16:35:27.268Z,6.50
2023-03-01T16:37:55.066Z,6.38
2023-03-01T16:40:28.268Z,6.57
2023-03-01T16:42:57.921Z,6.42
2023-03-01T16:45:25.431Z,6.32
2023-03-01T16:47:55.144Z,6.46
2023-03-01T16:50:22.335Z,6.50
2023-03-01T16:52:49.045Z,6.30
2023-03-01T16:55:16.898Z,6.34
2023-03-01T16:57:43.454Z,6.51
2023-03-01T17:00:13.490Z,6.22
2023-03-01T17:02:42.272Z,6.24
2023-03-01T17:05:09.176Z,6.25
2023-03-01T17:07:35.842Z,6.02
2023-03-01T17:10:03.306Z,5.87
2023-03-01T17:12:31.105Z,6.08
2023-03-01T17:14:57.546Z,5.95
2023-03-01T17:17:24.234Z,5.80
2023-03-01T17:19:50.743Z,5.87
2023-03-01T17:22:17.675Z,6.05
2023-03-01T17:24:45.399Z,5.87
2023-03-01T17:27:14.749Z,6.04
2023-03-01T17:29:42.793Z,6.00
2023-03-01T17:32:09.520Z,5.88
2023-03-01T17:34:37.407Z,5.92
2023-03-01T17:37:03.887Z,6.06
2023-03-01T17:39:36.074Z,5.91
2023-03-01T17:42:05.095Z,6.01
2023-03-01T17:44:32.636Z,6.08
2023-03-01T17:47:00.404Z,6.05
2023-03-01T17:49:26.873Z,6.07
2023-03-01T17:51:53.374Z,6.27
2023-03-01T17:54:19.920Z,6.08
2023-03-01T17:56:46.669Z,6.09
2023-03-01T17:59:13.233Z,6.26
2023-03-01T18:01:42.746Z,6.33
2023-03-01T18:04:09.580Z,6.33
2023-03-01T18:06:36.682Z,6.42
2023-03-01T18:09:03.276Z,6.53
2023-03-01T18:11:30.029Z,6.45
2023-03-01T18:13:58.059Z,6.37
2023-03-01T18:16:24.793Z,6.56
2023-03-01T18:18:55.527Z,6.45
2023-03-01T18:21:23.029Z,6.43
2023-03-01T18:23:50.372Z,6.47
2023-03-01T18:26:19.606Z,6.16
2023-03-01T18:28:48.499Z,6.04
2023-03-01T18:31:18.560Z,6.12
2023-03-01T18:33:47.222Z,5.99
2023-03-01T18:36:27.523Z,5.46
2023-03-01T18:38:57.688Z,5.32
2023-03-01T18:41:25.300Z,5.65
2023-03-01T18:43:52.068Z,5.33
2023-03-01T18:46:20.403Z,5.13
2023-03-01T18:48:47.256Z,5.33
2023-03-01T18:51:15.328Z,4.99
2023-03-01T18:53:41.868Z,4.62
2023-03-01T18:56:10.221Z,4.55
2023-03-01T18:58:37.414Z,4.23
2023-03-01T19:01:06.499Z,3.82
2023-03-01T19:03:33.072Z,3.89
2023-03-01T19:06:01.757Z,3.54
2023-03-01T19:08:29.456Z,3.22
2023-03-01T19:10:57.213Z,3.33
2023-03-01T19:13:24.039Z,3.06
2023-03-01T19:15:50.546Z,2.73
2023-03-01T19:18:17.268Z,2.81
2023-03-01T19:20:45.085Z,2.95
2023-03-01T19:23:13.753Z,2.86
2023-03-01T19:25:42.133Z,2.94
2023-03-01T19:28:08.653Z,3.04
2023-03-01T19:30:35.174Z,3.10
2023-03-01T19:33:01.866Z,2.76
2023-03-01T19:35:28.547Z,2.91
2023-03-01T19:37:55.056Z,2.60
2023-03-01T19:40:21.532Z,2.48
2023-03-01T19:42:49.336Z,2.47
2023-03-01T19:45:18.012Z,2.39
2023-03-01T19:47:47.300Z,2.14
2023-03-01T19:50:13.856Z,2.54
2023-03-01T19:52:40.603Z,2.88
2023-03-01T19:55:09.761Z,2.71
2023-03-01T19:57:36.662Z,2.55
2023-03-01T20:00:05.091Z,2.83
2023-03-01T20:02:31.762Z,2.67
2023-03-01T20:04:58.339Z,2.40
2023-03-01T20:07:25.105Z,2.20
2023-03-01T20:09:51.693Z,2.35
2023-03-01T20:12:20.596Z,2.50
2023-03-01T20:14:50.105Z,2.39
2023-03-01T20:17:16.545Z,2.55
2023-03-01T20:19:43.009Z,2.51
2023-03-01T20:22:09.686Z,2.50
2023-03-01T20:24:36.622Z,2.59
2023-03-01T20:27:03.820Z,2.74
2023-03-01T20:29:30.362Z,2.90
2023-03-01T20:31:57.296Z,3.09
2023-03-01T20:34:24.018Z,3.37
2023-03-01T20:36:50.543Z,3.30
2023-03-01T20:39:18.223Z,3.30
2023-03-01T20:41:44.746Z,3.51
2023-03-01T20:44:11.364Z,3.48
2023-03-01T20:46:38.245Z,3.43
2023-03-01T20:49:05.012Z,3.40
2023-03-01T20:51:32.941Z,3.34
2023-03-01T20:54:00.614Z,3.18
2023-03-01T20:56:27.503Z,3.05
2023-03-01T20:58:54.684Z,3.31
2023-03-01T21:01:21.746Z,3.34
2023-03-01T21:03:48.316Z,3.28
2023-03-01T21:06:16.089Z,3.42
2023-03-01T21:08:42.616Z,3.33
2023-03-01T21:11:09.296Z,3.24
2023-03-01T21:13:36.045Z,3.33
2023-03-01T21:16:07.943Z,3.43
2023-03-01T21:18:36.162Z,3.28
2023-03-01T21:21:04.785Z,3.33
2023-03-01T21:23:33.313Z,3.55
2023-03-01T21:26:07.452Z,3.33
2023-03-01T21:28:35.911Z,3.48
2023-03-01T21:31:06.867Z,3.64
2023-03-01T21:33:37.653Z,3.62
2023-03-01T21:36:05.901Z,3.77
2023-03-01T21:38:35.385Z,3.98
2023-03-01T21:41:05.193Z,3.80
2023-03-01T21:43:31.708Z,3.76
2023-03-01T21:46:01.396Z,3.98
2023-03-01T21:48:29.214Z,3.77
2023-03-01T21:50:56.385Z,3.62
2023-03-01T21:53:23.049Z,3.80
2023-03-01T21:55:51.316Z,3.60
2023-03-01T21:58:18.834Z,3.66
2023-03-01T22:00:47.568Z,3.87
2023-03-01T22:03:14.768Z,3.53
2023-03-01T22:05:41.436Z,3.44
2023-03-01T22:08:08.353Z,3.64
2023-03-01T22:10:39.042Z,3.57
2023-03-01T22:13:06.585Z,3.63
2023-03-01T22:15:33.101Z,3.73
2023-03-01T22:17:59.591Z,3.53
2023-03-01T22:20:26.039Z,3.30
2023-03-01T22:22:52.617Z,3.46
2023-03-01T22:25:19.896Z,3.37
2023-03-01T22:27:46.467Z,3.38
2023-03-01T22:30:13.684Z,3.55
2023-03-01T22:32:40.423Z,3.22
2023-03-01T22:35:07.081Z,2.90
2023-03-01T22:37:34.851Z,3.04
2023-03-01T22:40:01.610Z,2.90
2023-03-01T22:42:28.197Z,2.81
2023-03-01T22:44:54.661Z,2.83
2023-03-01T22:47:21.126Z,3.07
2023-03-01T22:49:47.600Z,2.98
2023-03-01T22:52:14.178Z,3.05
2023-03-01T22:54:41.017Z,3.20
2023-03-01T22:57:09.074Z,3.05
2023-03-01T22:59:35.624Z,2.81
2023-03-01T23:02:02.218Z,2.88
2023-03-01T23:04:28.707Z,3.05
2023-03-01T23:06:55.246Z,2.83
2023-03-01T23:09:21.830Z,2.78
2023-03-01T23:11:48.814Z,3.03
2023-03-01T23:14:16.225Z,2.89
2023-03-01T23:16:42.873Z,2.41
2023-03-01T23:19:09.492Z,2.04
2023-03-01T23:21:35.938Z,2.23
2023-03-01T23:24:03.253Z,2.29
2023-03-01T23:26:31.793Z,2.34
2023-03-01T23:28:58.482Z,2.51
2023-03-01T23:31:29.999Z,2.58
2023-03-01T23:33:56.702Z,2.62
2023-03-01T23:36:27.937Z,2.78
2023-03-01T23:38:58.527Z,3.02
2023-03-01T23:41:26.617Z,3.04
2023-03-01T23:43:55.795Z,3.03
2023-03-01T23:46:23.408Z,3.15
2023-03-01T23:48:50.189Z,3.21
2023-03-01T23:51:17.981Z,2.94
2023-03-01T23:53:54.860Z,2.87
2023-03-01T23:56:28.562Z,3.19
2023-03-01T23:58:55.962Z,3.04
